sensor_id;sensor_type;location;lat;lon;timestamp;P1;durP1;ratioP1;P2;durP2;ratioP2
13061;SDS011;6597;52.218;9.882;2022-11-20T00:02:08;18.10;;;7.07;;
13061;SDS011;6597;52.218;9.882;2022-11-20T00:04:34;17.13;;;7.17;;
13061;SDS011;6597;52.218;9.882;2022-11-20T00:07:01;12.20;;;7.00;;
13061;SDS011;6597;52.218;9.882;2022-11-20T00:09:27;16.47;;;7.90;;
13061;SDS011;6597;52.218;9.882;2022-11-20T00:11:54;16.87;;;8.03;;
13061;SDS011;6597;52.218;9.882;2022-11-20T00:14:21;15.27;;;7.33;;
13061;SDS011;6597;52.218;9.882;2022-11-20T00:16:48;14.17;;;6.67;;
13061;SDS011;6597;52.218;9.882;2022-11-20T00:19:15;14.40;;;6.67;;
13061;SDS011;6597;52.218;9.882;2022-11-20T00:21:41;12.97;;;6.93;;
13061;SDS011;6597;52.218;9.882;2022-11-20T00:24:08;13.83;;;7.40;;
13061;SDS011;6597;52.218;9.882;2022-11-20T00:26:35;21.30;;;6.70;;
13061;SDS011;6597;52.218;9.882;2022-11-20T00:29:02;11.80;;;6.20;;
13061;SDS011;6597;52.218;9.882;2022-11-20T00:31:30;14.40;;;7.50;;
13061;SDS011;6597;52.218;9.882;2022-11-20T00:33:58;11.77;;;6.83;;
13061;SDS011;6597;52.218;9.882;2022-11-20T00:36:25;14.47;;;7.37;;
13061;SDS011;6597;52.218;9.882;2022-11-20T00:38:54;12.77;;;7.03;;
13061;SDS011;6597;52.218;9.882;2022-11-20T00:41:22;14.63;;;7.27;;
13061;SDS011;6597;52.218;9.882;2022-11-20T00:43:49;16.63;;;7.27;;
13061;SDS011;6597;52.218;9.882;2022-11-20T00:46:19;10.40;;;5.83;;
13061;SDS011;6597;52.218;9.882;2022-11-20T00:48:48;14.73;;;6.70;;
13061;SDS011;6597;52.218;9.882;2022-11-20T00:51:15;15.07;;;7.50;;
13061;SDS011;6597;52.218;9.882;2022-11-20T00:53:43;14.30;;;6.80;;
13061;SDS011;6597;52.218;9.882;2022-11-20T00:56:10;15.63;;;7.37;;
13061;SDS011;6597;52.218;9.882;2022-11-20T00:58:38;10.73;;;6.00;;
13061;SDS011;6597;52.218;9.882;2022-11-20T01:01:07;12.17;;;7.07;;
13061;SDS011;6597;52.218;9.882;2022-11-20T01:03:36;12.30;;;7.17;;
13061;SDS011;6597;52.218;9.882;2022-11-20T01:06:05;13.30;;;7.03;;
13061;SDS011;6597;52.218;9.882;2022-11-20T01:08:34;9.13;;;5.67;;
13061;SDS011;6597;52.218;9.882;2022-11-20T01:11:01;10.83;;;6.10;;
13061;SDS011;6597;52.218;9.882;2022-11-20T01:13:30;11.60;;;6.93;;
13061;SDS011;6597;52.218;9.882;2022-11-20T01:16:03;9.77;;;5.67;;
13061;SDS011;6597;52.218;9.882;2022-11-20T01:18:31;10.83;;;6.10;;
13061;SDS011;6597;52.218;9.882;2022-11-20T01:20:59;8.80;;;5.60;;
13061;SDS011;6597;52.218;9.882;2022-11-20T01:23:30;12.67;;;6.33;;
13061;SDS011;6597;52.218;9.882;2022-11-20T01:25:59;9.43;;;6.37;;
13061;SDS011;6597;52.218;9.882;2022-11-20T01:28:26;9.83;;;6.10;;
13061;SDS011;6597;52.218;9.882;2022-11-20T01:30:54;10.80;;;5.67;;
13061;SDS011;6597;52.218;9.882;2022-11-20T01:33:20;11.40;;;6.37;;
13061;SDS011;6597;52.218;9.882;2022-11-20T01:35:47;14.13;;;6.20;;
13061;SDS011;6597;52.218;9.882;2022-11-20T01:38:14;12.50;;;6.60;;
13061;SDS011;6597;52.218;9.882;2022-11-20T01:40:42;12.63;;;6.30;;
13061;SDS011;6597;52.218;9.882;2022-11-20T01:43:12;12.93;;;7.40;;
13061;SDS011;6597;52.218;9.882;2022-11-20T01:45:52;19.10;;;6.47;;
13061;SDS011;6597;52.218;9.882;2022-11-20T01:48:28;11.33;;;6.30;;
13061;SDS011;6597;52.218;9.882;2022-11-20T01:50:59;11.33;;;6.77;;
13061;SDS011;6597;52.218;9.882;2022-11-20T01:53:28;8.80;;;5.73;;
13061;SDS011;6597;52.218;9.882;2022-11-20T01:56:00;14.90;;;6.90;;
13061;SDS011;6597;52.218;9.882;2022-11-20T01:58:30;11.80;;;6.23;;
13061;SDS011;6597;52.218;9.882;2022-11-20T02:01:01;11.47;;;6.60;;
13061;SDS011;6597;52.218;9.882;2022-11-20T02:03:29;13.90;;;5.93;;
13061;SDS011;6597;52.218;9.882;2022-11-20T02:05:58;13.67;;;6.87;;
13061;SDS011;6597;52.218;9.882;2022-11-20T02:08:30;12.60;;;7.33;;
13061;SDS011;6597;52.218;9.882;2022-11-20T02:10:57;11.00;;;6.33;;
13061;SDS011;6597;52.218;9.882;2022-11-20T02:13:25;11.50;;;6.20;;
13061;SDS011;6597;52.218;9.882;2022-11-20T02:16:09;10.60;;;5.67;;
13061;SDS011;6597;52.218;9.882;2022-11-20T02:18:39;12.23;;;6.70;;
13061;SDS011;6597;52.218;9.882;2022-11-20T02:21:06;13.00;;;6.57;;
13061;SDS011;6597;52.218;9.882;2022-11-20T02:23:36;10.27;;;5.50;;
13061;SDS011;6597;52.218;9.882;2022-11-20T02:26:07;11.63;;;5.77;;
13061;SDS011;6597;52.218;9.882;2022-11-20T02:28:38;11.80;;;5.67;;
13061;SDS011;6597;52.218;9.882;2022-11-20T02:31:05;12.57;;;6.63;;
13061;SDS011;6597;52.218;9.882;2022-11-20T02:33:32;8.43;;;5.70;;
13061;SDS011;6597;52.218;9.882;2022-11-20T02:35:59;15.60;;;6.63;;
13061;SDS011;6597;52.218;9.882;2022-11-20T02:38:25;9.27;;;5.87;;
13061;SDS011;6597;52.218;9.882;2022-11-20T02:40:52;9.93;;;5.50;;
13061;SDS011;6597;52.218;9.882;2022-11-20T02:43:20;13.53;;;6.57;;
13061;SDS011;6597;52.218;9.882;2022-11-20T02:45:47;10.93;;;5.63;;
13061;SDS011;6597;52.218;9.882;2022-11-20T02:48:13;14.10;;;6.60;;
13061;SDS011;6597;52.218;9.882;2022-11-20T02:50:40;11.03;;;6.07;;
13061;SDS011;6597;52.218;9.882;2022-11-20T02:53:06;10.17;;;5.20;;
13061;SDS011;6597;52.218;9.882;2022-11-20T02:55:33;11.87;;;5.83;;
13061;SDS011;6597;52.218;9.882;2022-11-20T02:58:00;10.70;;;6.00;;
13061;SDS011;6597;52.218;9.882;2022-11-20T03:00:27;9.60;;;5.23;;
13061;SDS011;6597;52.218;9.882;2022-11-20T03:02:54;10.23;;;5.70;;
13061;SDS011;6597;52.218;9.882;2022-11-20T03:05:20;10.40;;;5.80;;
13061;SDS011;6597;52.218;9.882;2022-11-20T03:07:47;12.20;;;6.63;;
13061;SDS011;6597;52.218;9.882;2022-11-20T03:10:14;11.70;;;5.83;;
13061;SDS011;6597;52.218;9.882;2022-11-20T03:12:41;12.03;;;5.33;;
13061;SDS011;6597;52.218;9.882;2022-11-20T03:15:08;10.07;;;5.70;;
13061;SDS011;6597;52.218;9.882;2022-11-20T03:17:36;9.27;;;5.80;;
13061;SDS011;6597;52.218;9.882;2022-11-20T03:20:03;10.57;;;5.37;;
13061;SDS011;6597;52.218;9.882;2022-11-20T03:22:31;11.67;;;5.97;;
13061;SDS011;6597;52.218;9.882;2022-11-20T03:24:58;9.80;;;5.97;;
13061;SDS011;6597;52.218;9.882;2022-11-20T03:27:24;12.83;;;6.17;;
13061;SDS011;6597;52.218;9.882;2022-11-20T03:29:51;12.53;;;5.77;;
13061;SDS011;6597;52.218;9.882;2022-11-20T03:32:17;10.83;;;5.33;;
13061;SDS011;6597;52.218;9.882;2022-11-20T03:34:45;11.53;;;5.70;;
13061;SDS011;6597;52.218;9.882;2022-11-20T03:37:12;11.37;;;6.10;;
13061;SDS011;6597;52.218;9.882;2022-11-20T03:39:38;9.73;;;5.00;;
13061;SDS011;6597;52.218;9.882;2022-11-20T03:42:05;11.60;;;6.47;;
13061;SDS011;6597;52.218;9.882;2022-11-20T03:44:51;9.60;;;5.47;;
13061;SDS011;6597;52.218;9.882;2022-11-20T03:47:18;10.27;;;5.40;;
13061;SDS011;6597;52.218;9.882;2022-11-20T03:49:46;6.20;;;4.77;;
13061;SDS011;6597;52.218;9.882;2022-11-20T03:52:12;12.10;;;6.13;;
13061;SDS011;6597;52.218;9.882;2022-11-20T03:54:39;10.60;;;5.83;;
13061;SDS011;6597;52.218;9.882;2022-11-20T03:57:05;7.73;;;4.97;;
13061;SDS011;6597;52.218;9.882;2022-11-20T03:59:32;8.50;;;5.50;;
13061;SDS011;6597;52.218;9.882;2022-11-20T04:01:58;12.50;;;5.80;;
13061;SDS011;6597;52.218;9.882;2022-11-20T04:04:25;13.50;;;6.13;;
13061;SDS011;6597;52.218;9.882;2022-11-20T04:06:53;8.30;;;5.33;;
13061;SDS011;6597;52.218;9.882;2022-11-20T04:09:19;10.10;;;5.33;;
13061;SDS011;6597;52.218;9.882;2022-11-20T04:11:46;9.33;;;5.30;;
13061;SDS011;6597;52.218;9.882;2022-11-20T04:14:13;14.00;;;5.93;;
13061;SDS011;6597;52.218;9.882;2022-11-20T04:16:41;10.30;;;5.40;;
13061;SDS011;6597;52.218;9.882;2022-11-20T04:19:09;7.63;;;5.10;;
13061;SDS011;6597;52.218;9.882;2022-11-20T04:21:40;14.10;;;5.83;;
13061;SDS011;6597;52.218;9.882;2022-11-20T04:24:08;9.60;;;5.03;;
13061;SDS011;6597;52.218;9.882;2022-11-20T04:26:35;9.30;;;4.87;;
13061;SDS011;6597;52.218;9.882;2022-11-20T04:29:02;8.33;;;4.87;;
13061;SDS011;6597;52.218;9.882;2022-11-20T04:31:30;8.87;;;4.90;;
13061;SDS011;6597;52.218;9.882;2022-11-20T04:33:59;7.93;;;5.17;;
13061;SDS011;6597;52.218;9.882;2022-11-20T04:36:26;9.80;;;5.10;;
13061;SDS011;6597;52.218;9.882;2022-11-20T04:38:54;11.17;;;5.97;;
13061;SDS011;6597;52.218;9.882;2022-11-20T04:41:25;11.83;;;5.53;;
13061;SDS011;6597;52.218;9.882;2022-11-20T04:43:53;8.73;;;5.57;;
13061;SDS011;6597;52.218;9.882;2022-11-20T04:46:24;10.93;;;5.63;;
13061;SDS011;6597;52.218;9.882;2022-11-20T04:48:52;8.77;;;5.53;;
13061;SDS011;6597;52.218;9.882;2022-11-20T04:51:19;10.80;;;5.67;;
13061;SDS011;6597;52.218;9.882;2022-11-20T04:53:45;10.27;;;5.60;;
13061;SDS011;6597;52.218;9.882;2022-11-20T04:56:12;10.73;;;5.20;;
13061;SDS011;6597;52.218;9.882;2022-11-20T04:58:40;9.83;;;5.57;;
13061;SDS011;6597;52.218;9.882;2022-11-20T05:01:07;13.10;;;5.40;;
13061;SDS011;6597;52.218;9.882;2022-11-20T05:03:36;8.20;;;4.67;;
13061;SDS011;6597;52.218;9.882;2022-11-20T05:06:03;13.27;;;5.70;;
13061;SDS011;6597;52.218;9.882;2022-11-20T05:08:31;10.93;;;6.07;;
13061;SDS011;6597;52.218;9.882;2022-11-20T05:11:01;12.37;;;5.73;;
13061;SDS011;6597;52.218;9.882;2022-11-20T05:13:28;9.23;;;4.60;;
13061;SDS011;6597;52.218;9.882;2022-11-20T05:15:59;9.83;;;5.87;;
13061;SDS011;6597;52.218;9.882;2022-11-20T05:18:27;10.23;;;5.87;;
13061;SDS011;6597;52.218;9.882;2022-11-20T05:20:54;8.57;;;5.50;;
13061;SDS011;6597;52.218;9.882;2022-11-20T05:23:22;8.07;;;5.50;;
13061;SDS011;6597;52.218;9.882;2022-11-20T05:25:51;7.80;;;4.83;;
13061;SDS011;6597;52.218;9.882;2022-11-20T05:28:18;11.10;;;5.17;;
13061;SDS011;6597;52.218;9.882;2022-11-20T05:30:44;10.13;;;5.40;;
13061;SDS011;6597;52.218;9.882;2022-11-20T05:33:12;10.20;;;5.23;;
13061;SDS011;6597;52.218;9.882;2022-11-20T05:35:39;9.53;;;5.23;;
13061;SDS011;6597;52.218;9.882;2022-11-20T05:38:06;11.13;;;4.83;;
13061;SDS011;6597;52.218;9.882;2022-11-20T05:40:32;7.00;;;4.70;;
13061;SDS011;6597;52.218;9.882;2022-11-20T05:42:59;9.43;;;5.30;;
13061;SDS011;6597;52.218;9.882;2022-11-20T05:45:25;10.13;;;4.93;;
13061;SDS011;6597;52.218;9.882;2022-11-20T05:47:52;8.40;;;4.53;;
13061;SDS011;6597;52.218;9.882;2022-11-20T05:50:20;6.67;;;4.57;;
13061;SDS011;6597;52.218;9.882;2022-11-20T05:52:47;10.30;;;4.67;;
13061;SDS011;6597;52.218;9.882;2022-11-20T05:55:13;8.47;;;4.70;;
13061;SDS011;6597;52.218;9.882;2022-11-20T05:57:40;9.80;;;5.07;;
13061;SDS011;6597;52.218;9.882;2022-11-20T06:00:07;7.77;;;5.27;;
13061;SDS011;6597;52.218;9.882;2022-11-20T06:02:34;9.03;;;5.67;;
13061;SDS011;6597;52.218;9.882;2022-11-20T06:05:01;10.07;;;5.33;;
13061;SDS011;6597;52.218;9.882;2022-11-20T06:07:29;9.60;;;5.07;;
13061;SDS011;6597;52.218;9.882;2022-11-20T06:09:55;10.97;;;5.27;;
13061;SDS011;6597;52.218;9.882;2022-11-20T06:12:22;7.30;;;4.53;;
13061;SDS011;6597;52.218;9.882;2022-11-20T06:14:48;7.70;;;5.17;;
13061;SDS011;6597;52.218;9.882;2022-11-20T06:17:15;9.80;;;5.30;;
13061;SDS011;6597;52.218;9.882;2022-11-20T06:19:41;10.60;;;5.60;;
13061;SDS011;6597;52.218;9.882;2022-11-20T06:22:08;10.13;;;5.33;;
13061;SDS011;6597;52.218;9.882;2022-11-20T06:24:36;10.03;;;5.20;;
13061;SDS011;6597;52.218;9.882;2022-11-20T06:27:02;10.40;;;5.17;;
13061;SDS011;6597;52.218;9.882;2022-11-20T06:29:29;9.43;;;5.63;;
13061;SDS011;6597;52.218;9.882;2022-11-20T06:31:55;10.90;;;5.63;;
13061;SDS011;6597;52.218;9.882;2022-11-20T06:34:22;10.17;;;5.77;;
13061;SDS011;6597;52.218;9.882;2022-11-20T06:36:48;8.53;;;5.20;;
13061;SDS011;6597;52.218;9.882;2022-11-20T06:39:15;16.10;;;6.03;;
13061;SDS011;6597;52.218;9.882;2022-11-20T06:41:43;11.13;;;5.10;;
13061;SDS011;6597;52.218;9.882;2022-11-20T06:44:09;9.03;;;5.97;;
13061;SDS011;6597;52.218;9.882;2022-11-20T06:46:36;11.27;;;5.57;;
13061;SDS011;6597;52.218;9.882;2022-11-20T06:49:03;7.30;;;4.70;;
13061;SDS011;6597;52.218;9.882;2022-11-20T06:51:29;13.03;;;6.30;;
13061;SDS011;6597;52.218;9.882;2022-11-20T06:53:56;9.90;;;5.17;;
13061;SDS011;6597;52.218;9.882;2022-11-20T06:56:22;11.10;;;5.57;;
13061;SDS011;6597;52.218;9.882;2022-11-20T06:58:50;7.67;;;4.63;;
13061;SDS011;6597;52.218;9.882;2022-11-20T07:01:17;7.77;;;5.40;;
13061;SDS011;6597;52.218;9.882;2022-11-20T07:03:43;7.10;;;4.37;;
13061;SDS011;6597;52.218;9.882;2022-11-20T07:06:10;10.87;;;5.00;;
13061;SDS011;6597;52.218;9.882;2022-11-20T07:08:37;11.07;;;5.87;;
13061;SDS011;6597;52.218;9.882;2022-11-20T07:11:04;10.17;;;5.37;;
13061;SDS011;6597;52.218;9.882;2022-11-20T07:13:32;12.10;;;5.27;;
13061;SDS011;6597;52.218;9.882;2022-11-20T07:16:01;7.63;;;4.97;;
13061;SDS011;6597;52.218;9.882;2022-11-20T07:18:29;7.27;;;3.93;;
13061;SDS011;6597;52.218;9.882;2022-11-20T07:20:55;9.60;;;5.30;;
13061;SDS011;6597;52.218;9.882;2022-11-20T07:23:22;8.60;;;5.17;;
13061;SDS011;6597;52.218;9.882;2022-11-20T07:25:49;8.83;;;5.17;;
13061;SDS011;6597;52.218;9.882;2022-11-20T07:28:15;9.30;;;5.67;;
13061;SDS011;6597;52.218;9.882;2022-11-20T07:30:42;14.63;;;5.60;;
13061;SDS011;6597;52.218;9.882;2022-11-20T07:33:09;8.97;;;4.70;;
13061;SDS011;6597;52.218;9.882;2022-11-20T07:35:36;9.90;;;5.13;;
13061;SDS011;6597;52.218;9.882;2022-11-20T07:38:03;10.03;;;5.17;;
13061;SDS011;6597;52.218;9.882;2022-11-20T07:40:29;8.07;;;4.17;;
13061;SDS011;6597;52.218;9.882;2022-11-20T07:42:56;11.63;;;5.60;;
13061;SDS011;6597;52.218;9.882;2022-11-20T07:45:23;6.70;;;4.57;;
13061;SDS011;6597;52.218;9.882;2022-11-20T07:47:50;8.50;;;5.03;;
13061;SDS011;6597;52.218;9.882;2022-11-20T07:50:19;8.93;;;5.13;;
13061;SDS011;6597;52.218;9.882;2022-11-20T07:52:46;7.93;;;5.33;;
13061;SDS011;6597;52.218;9.882;2022-11-20T07:55:12;8.50;;;5.07;;
13061;SDS011;6597;52.218;9.882;2022-11-20T07:57:39;7.57;;;5.07;;
13061;SDS011;6597;52.218;9.882;2022-11-20T08:00:07;11.10;;;5.20;;
13061;SDS011;6597;52.218;9.882;2022-11-20T08:02:38;11.07;;;4.73;;
13061;SDS011;6597;52.218;9.882;2022-11-20T08:05:05;7.93;;;5.07;;
13061;SDS011;6597;52.218;9.882;2022-11-20T08:07:36;10.63;;;5.70;;
13061;SDS011;6597;52.218;9.882;2022-11-20T08:10:03;9.40;;;5.00;;
13061;SDS011;6597;52.218;9.882;2022-11-20T08:12:31;9.10;;;4.77;;
13061;SDS011;6597;52.218;9.882;2022-11-20T08:15:15;9.57;;;5.83;;
13061;SDS011;6597;52.218;9.882;2022-11-20T08:17:41;8.93;;;4.83;;
13061;SDS011;6597;52.218;9.882;2022-11-20T08:20:08;12.17;;;5.40;;
13061;SDS011;6597;52.218;9.882;2022-11-20T08:22:36;12.40;;;5.93;;
13061;SDS011;6597;52.218;9.882;2022-11-20T08:25:03;15.73;;;6.50;;
13061;SDS011;6597;52.218;9.882;2022-11-20T08:27:31;11.17;;;5.50;;
13061;SDS011;6597;52.218;9.882;2022-11-20T08:29:58;8.87;;;5.33;;
13061;SDS011;6597;52.218;9.882;2022-11-20T08:32:24;7.17;;;4.63;;
13061;SDS011;6597;52.218;9.882;2022-11-20T08:34:51;10.43;;;5.53;;
13061;SDS011;6597;52.218;9.882;2022-11-20T08:37:17;13.67;;;6.53;;
13061;SDS011;6597;52.218;9.882;2022-11-20T08:39:45;7.33;;;5.30;;
13061;SDS011;6597;52.218;9.882;2022-11-20T08:42:12;11.30;;;6.07;;
13061;SDS011;6597;52.218;9.882;2022-11-20T08:44:38;9.97;;;5.87;;
13061;SDS011;6597;52.218;9.882;2022-11-20T08:47:05;11.40;;;5.87;;
13061;SDS011;6597;52.218;9.882;2022-11-20T08:49:31;8.30;;;4.87;;
13061;SDS011;6597;52.218;9.882;2022-11-20T08:51:58;10.40;;;5.83;;
13061;SDS011;6597;52.218;9.882;2022-11-20T08:54:24;8.77;;;4.90;;
13061;SDS011;6597;52.218;9.882;2022-11-20T08:56:52;8.57;;;5.10;;
13061;SDS011;6597;52.218;9.882;2022-11-20T08:59:19;8.30;;;4.67;;
13061;SDS011;6597;52.218;9.882;2022-11-20T09:01:45;11.40;;;5.37;;
13061;SDS011;6597;52.218;9.882;2022-11-20T09:04:12;10.90;;;5.93;;
13061;SDS011;6597;52.218;9.882;2022-11-20T09:06:39;8.33;;;4.97;;
13061;SDS011;6597;52.218;9.882;2022-11-20T09:09:06;8.77;;;5.20;;
13061;SDS011;6597;52.218;9.882;2022-11-20T09:11:32;9.97;;;4.97;;
13061;SDS011;6597;52.218;9.882;2022-11-20T09:14:01;11.87;;;5.60;;
13061;SDS011;6597;52.218;9.882;2022-11-20T09:16:29;12.23;;;5.80;;
13061;SDS011;6597;52.218;9.882;2022-11-20T09:18:56;9.90;;;5.40;;
13061;SDS011;6597;52.218;9.882;2022-11-20T09:21:22;9.33;;;4.60;;
13061;SDS011;6597;52.218;9.882;2022-11-20T09:23:49;11.17;;;5.60;;
13061;SDS011;6597;52.218;9.882;2022-11-20T09:26:16;8.43;;;4.37;;
13061;SDS011;6597;52.218;9.882;2022-11-20T09:28:42;9.67;;;4.80;;
13061;SDS011;6597;52.218;9.882;2022-11-20T09:31:21;8.23;;;4.40;;
13061;SDS011;6597;52.218;9.882;2022-11-20T09:33:49;9.93;;;5.20;;
13061;SDS011;6597;52.218;9.882;2022-11-20T09:36:16;8.07;;;5.13;;
13061;SDS011;6597;52.218;9.882;2022-11-20T09:38:43;8.80;;;4.93;;
13061;SDS011;6597;52.218;9.882;2022-11-20T09:41:14;8.00;;;4.90;;
13061;SDS011;6597;52.218;9.882;2022-11-20T09:43:53;7.87;;;5.43;;
13061;SDS011;6597;52.218;9.882;2022-11-20T09:46:31;10.27;;;5.00;;
13061;SDS011;6597;52.218;9.882;2022-11-20T09:49:11;12.60;;;5.67;;
13061;SDS011;6597;52.218;9.882;2022-11-20T09:51:50;9.07;;;5.20;;
13061;SDS011;6597;52.218;9.882;2022-11-20T09:54:25;9.57;;;5.30;;
13061;SDS011;6597;52.218;9.882;2022-11-20T09:56:56;9.27;;;5.23;;
13061;SDS011;6597;52.218;9.882;2022-11-20T09:59:29;5.90;;;4.33;;
13061;SDS011;6597;52.218;9.882;2022-11-20T10:02:08;8.67;;;5.80;;
13061;SDS011;6597;52.218;9.882;2022-11-20T10:04:43;10.77;;;5.47;;
13061;SDS011;6597;52.218;9.882;2022-11-20T10:07:15;10.00;;;5.27;;
13061;SDS011;6597;52.218;9.882;2022-11-20T10:09:50;8.70;;;5.17;;
13061;SDS011;6597;52.218;9.882;2022-11-20T10:12:19;11.60;;;5.60;;
13061;SDS011;6597;52.218;9.882;2022-11-20T10:14:56;8.97;;;5.10;;
13061;SDS011;6597;52.218;9.882;2022-11-20T10:17:36;13.03;;;5.50;;
13061;SDS011;6597;52.218;9.882;2022-11-20T10:20:24;8.93;;;4.97;;
13061;SDS011;6597;52.218;9.882;2022-11-20T10:23:03;6.50;;;4.63;;
13061;SDS011;6597;52.218;9.882;2022-11-20T10:25:44;7.20;;;4.97;;
13061;SDS011;6597;52.218;9.882;2022-11-20T10:28:22;11.80;;;5.50;;
13061;SDS011;6597;52.218;9.882;2022-11-20T10:30:59;7.97;;;4.40;;
13061;SDS011;6597;52.218;9.882;2022-11-20T10:33:31;7.53;;;4.90;;
13061;SDS011;6597;52.218;9.882;2022-11-20T10:36:05;11.73;;;5.17;;
13061;SDS011;6597;52.218;9.882;2022-11-20T10:38:40;11.53;;;5.60;;
13061;SDS011;6597;52.218;9.882;2022-11-20T10:41:12;10.37;;;5.33;;
13061;SDS011;6597;52.218;9.882;2022-11-20T10:43:54;8.00;;;4.73;;
13061;SDS011;6597;52.218;9.882;2022-11-20T10:46:29;12.87;;;4.93;;
13061;SDS011;6597;52.218;9.882;2022-11-20T10:49:09;9.77;;;5.00;;
13061;SDS011;6597;52.218;9.882;2022-11-20T10:51:40;9.93;;;4.83;;
13061;SDS011;6597;52.218;9.882;2022-11-20T10:54:19;6.90;;;4.50;;
13061;SDS011;6597;52.218;9.882;2022-11-20T10:56:53;8.80;;;4.53;;
13061;SDS011;6597;52.218;9.882;2022-11-20T10:59:28;7.10;;;4.40;;
13061;SDS011;6597;52.218;9.882;2022-11-20T11:02:14;6.90;;;4.30;;
13061;SDS011;6597;52.218;9.882;2022-11-20T11:04:44;8.27;;;5.00;;
13061;SDS011;6597;52.218;9.882;2022-11-20T11:07:13;12.30;;;5.87;;
13061;SDS011;6597;52.218;9.882;2022-11-20T11:09:43;8.70;;;4.80;;
13061;SDS011;6597;52.218;9.882;2022-11-20T11:12:13;12.40;;;5.97;;
13061;SDS011;6597;52.218;9.882;2022-11-20T11:14:44;11.77;;;5.07;;
13061;SDS011;6597;52.218;9.882;2022-11-20T11:17:19;8.77;;;5.23;;
13061;SDS011;6597;52.218;9.882;2022-11-20T11:20:03;10.00;;;5.50;;
13061;SDS011;6597;52.218;9.882;2022-11-20T11:22:33;8.87;;;5.03;;
13061;SDS011;6597;52.218;9.882;2022-11-20T11:25:01;10.47;;;5.70;;
13061;SDS011;6597;52.218;9.882;2022-11-20T11:27:27;12.30;;;5.20;;
13061;SDS011;6597;52.218;9.882;2022-11-20T11:30:12;10.90;;;5.17;;
13061;SDS011;6597;52.218;9.882;2022-11-20T11:32:41;9.20;;;5.47;;
13061;SDS011;6597;52.218;9.882;2022-11-20T11:35:19;9.70;;;5.23;;
13061;SDS011;6597;52.218;9.882;2022-11-20T11:37:48;10.17;;;4.80;;
13061;SDS011;6597;52.218;9.882;2022-11-20T11:40:16;9.33;;;5.47;;
13061;SDS011;6597;52.218;9.882;2022-11-20T11:42:50;7.90;;;4.93;;
13061;SDS011;6597;52.218;9.882;2022-11-20T11:45:21;11.33;;;6.17;;
13061;SDS011;6597;52.218;9.882;2022-11-20T11:47:47;9.53;;;4.90;;
13061;SDS011;6597;52.218;9.882;2022-11-20T11:50:20;7.67;;;4.43;;
13061;SDS011;6597;52.218;9.882;2022-11-20T11:52:51;7.23;;;4.97;;
13061;SDS011;6597;52.218;9.882;2022-11-20T11:55:28;10.40;;;5.43;;
13061;SDS011;6597;52.218;9.882;2022-11-20T11:57:59;9.27;;;5.20;;
13061;SDS011;6597;52.218;9.882;2022-11-20T12:00:35;9.67;;;4.87;;
13061;SDS011;6597;52.218;9.882;2022-11-20T12:03:08;11.40;;;5.23;;
13061;SDS011;6597;52.218;9.882;2022-11-20T12:05:42;10.17;;;5.53;;
13061;SDS011;6597;52.218;9.882;2022-11-20T12:08:13;9.53;;;5.50;;
13061;SDS011;6597;52.218;9.882;2022-11-20T12:10:44;9.40;;;5.40;;
13061;SDS011;6597;52.218;9.882;2022-11-20T12:13:17;10.67;;;5.37;;
13061;SDS011;6597;52.218;9.882;2022-11-20T12:15:52;11.57;;;4.83;;
13061;SDS011;6597;52.218;9.882;2022-11-20T12:18:19;11.87;;;4.90;;
13061;SDS011;6597;52.218;9.882;2022-11-20T12:20:51;8.07;;;4.83;;
13061;SDS011;6597;52.218;9.882;2022-11-20T12:23:33;13.87;;;6.03;;
13061;SDS011;6597;52.218;9.882;2022-11-20T12:26:08;9.67;;;6.00;;
13061;SDS011;6597;52.218;9.882;2022-11-20T12:28:52;9.47;;;5.17;;
13061;SDS011;6597;52.218;9.882;2022-11-20T12:31:31;11.23;;;6.63;;
13061;SDS011;6597;52.218;9.882;2022-11-20T12:34:14;10.87;;;5.83;;
13061;SDS011;6597;52.218;9.882;2022-11-20T12:36:54;11.90;;;6.43;;
13061;SDS011;6597;52.218;9.882;2022-11-20T12:39:30;8.13;;;4.77;;
13061;SDS011;6597;52.218;9.882;2022-11-20T12:42:13;10.33;;;5.57;;
13061;SDS011;6597;52.218;9.882;2022-11-20T12:45:17;10.50;;;5.90;;
13061;SDS011;6597;52.218;9.882;2022-11-20T12:50:55;7.83;;;5.27;;
13061;SDS011;6597;52.218;9.882;2022-11-20T12:53:40;10.00;;;5.50;;
13061;SDS011;6597;52.218;9.882;2022-11-20T12:56:18;10.33;;;5.47;;
13061;SDS011;6597;52.218;9.882;2022-11-20T12:58:58;11.43;;;6.30;;
13061;SDS011;6597;52.218;9.882;2022-11-20T13:01:32;10.77;;;5.73;;
13061;SDS011;6597;52.218;9.882;2022-11-20T13:04:09;8.10;;;5.00;;
13061;SDS011;6597;52.218;9.882;2022-11-20T13:06:45;10.93;;;5.30;;
13061;SDS011;6597;52.218;9.882;2022-11-20T13:09:14;9.70;;;5.27;;
13061;SDS011;6597;52.218;9.882;2022-11-20T13:11:44;11.20;;;5.13;;
13061;SDS011;6597;52.218;9.882;2022-11-20T13:14:26;8.13;;;5.17;;
13061;SDS011;6597;52.218;9.882;2022-11-20T13:17:04;14.87;;;4.57;;
13061;SDS011;6597;52.218;9.882;2022-11-20T13:19:36;7.73;;;5.03;;
13061;SDS011;6597;52.218;9.882;2022-11-20T13:22:03;7.67;;;5.43;;
13061;SDS011;6597;52.218;9.882;2022-11-20T13:24:31;8.87;;;5.43;;
13061;SDS011;6597;52.218;9.882;2022-11-20T13:27:05;10.00;;;5.47;;
13061;SDS011;6597;52.218;9.882;2022-11-20T13:29:45;11.67;;;5.43;;
13061;SDS011;6597;52.218;9.882;2022-11-20T13:32:14;10.87;;;6.03;;
13061;SDS011;6597;52.218;9.882;2022-11-20T13:34:52;10.67;;;5.53;;
13061;SDS011;6597;52.218;9.882;2022-11-20T13:37:27;8.27;;;4.97;;
13061;SDS011;6597;52.218;9.882;2022-11-20T13:40:10;10.63;;;5.27;;
13061;SDS011;6597;52.218;9.882;2022-11-20T13:42:39;8.40;;;4.93;;
13061;SDS011;6597;52.218;9.882;2022-11-20T13:45:10;10.67;;;5.30;;
13061;SDS011;6597;52.218;9.882;2022-11-20T13:47:47;10.63;;;5.37;;
13061;SDS011;6597;52.218;9.882;2022-11-20T13:50:14;11.40;;;6.07;;
13061;SDS011;6597;52.218;9.882;2022-11-20T13:52:43;9.93;;;5.27;;
13061;SDS011;6597;52.218;9.882;2022-11-20T13:55:21;10.10;;;5.40;;
13061;SDS011;6597;52.218;9.882;2022-11-20T13:57:55;10.20;;;5.53;;
13061;SDS011;6597;52.218;9.882;2022-11-20T14:00:43;14.13;;;6.40;;
13061;SDS011;6597;52.218;9.882;2022-11-20T14:03:15;9.87;;;5.80;;
13061;SDS011;6597;52.218;9.882;2022-11-20T14:05:46;8.80;;;4.87;;
13061;SDS011;6597;52.218;9.882;2022-11-20T14:08:23;13.00;;;5.20;;
13061;SDS011;6597;52.218;9.882;2022-11-20T14:11:03;7.33;;;4.43;;
13061;SDS011;6597;52.218;9.882;2022-11-20T14:13:39;9.50;;;5.20;;
13061;SDS011;6597;52.218;9.882;2022-11-20T14:16:19;7.93;;;4.70;;
13061;SDS011;6597;52.218;9.882;2022-11-20T14:18:46;14.73;;;6.00;;
13061;SDS011;6597;52.218;9.882;2022-11-20T14:21:20;8.80;;;4.97;;
13061;SDS011;6597;52.218;9.882;2022-11-20T14:23:48;8.73;;;5.27;;
13061;SDS011;6597;52.218;9.882;2022-11-20T14:26:16;12.90;;;5.80;;
13061;SDS011;6597;52.218;9.882;2022-11-20T14:28:47;8.80;;;4.53;;
13061;SDS011;6597;52.218;9.882;2022-11-20T14:31:18;10.30;;;5.03;;
13061;SDS011;6597;52.218;9.882;2022-11-20T14:33:50;11.20;;;4.33;;
13061;SDS011;6597;52.218;9.882;2022-11-20T14:36:18;10.63;;;5.10;;
13061;SDS011;6597;52.218;9.882;2022-11-20T14:38:46;6.33;;;4.23;;
13061;SDS011;6597;52.218;9.882;2022-11-20T14:41:18;9.63;;;4.93;;
13061;SDS011;6597;52.218;9.882;2022-11-20T14:43:47;10.97;;;5.50;;
13061;SDS011;6597;52.218;9.882;2022-11-20T14:46:19;9.20;;;4.37;;
13061;SDS011;6597;52.218;9.882;2022-11-20T14:48:46;11.73;;;5.33;;
13061;SDS011;6597;52.218;9.882;2022-11-20T14:51:25;6.83;;;4.10;;
13061;SDS011;6597;52.218;9.882;2022-11-20T14:53:55;10.70;;;4.67;;
13061;SDS011;6597;52.218;9.882;2022-11-20T14:56:23;8.90;;;5.00;;
13061;SDS011;6597;52.218;9.882;2022-11-20T14:58:56;7.90;;;5.47;;
13061;SDS011;6597;52.218;9.882;2022-11-20T15:01:27;10.23;;;5.23;;
13061;SDS011;6597;52.218;9.882;2022-11-20T15:03:59;9.50;;;4.80;;
13061;SDS011;6597;52.218;9.882;2022-11-20T15:06:27;7.20;;;4.50;;
13061;SDS011;6597;52.218;9.882;2022-11-20T15:08:56;9.87;;;4.50;;
13061;SDS011;6597;52.218;9.882;2022-11-20T15:11:27;10.87;;;4.93;;
13061;SDS011;6597;52.218;9.882;2022-11-20T15:13:56;8.03;;;4.67;;